sensor_id;sensor_type;location;lat;lon;timestamp;temperature;humidity
1455;DHT22;721;48.168;12.818;2024-01-30T00:00:53;1.30;10.10
1455;DHT22;721;48.168;12.818;2024-01-30T00:03:20;1.30;10.20
1455;DHT22;721;48.168;12.818;2024-01-30T00:05:47;1.20;10.80
1455;DHT22;721;48.168;12.818;2024-01-30T00:08:15;1.20;10.90
1455;DHT22;721;48.168;12.818;2024-01-30T00:10:42;1.10;12.70
1455;DHT22;721;48.168;12.818;2024-01-30T00:13:08;0.90;13.80
1455;DHT22;721;48.168;12.818;2024-01-30T00:15:35;0.80;13.30
1455;DHT22;721;48.168;12.818;2024-01-30T00:18:02;0.80;13.20
1455;DHT22;721;48.168;12.818;2024-01-30T00:20:29;0.90;12.10
1455;DHT22;721;48.168;12.818;2024-01-30T00:22:55;0.90;10.80
1455;DHT22;721;48.168;12.818;2024-01-30T00:25:24;0.80;11.80
1455;DHT22;721;48.168;12.818;2024-01-30T00:27:50;0.80;11.00
1455;DHT22;721;48.168;12.818;2024-01-30T00:30:17;0.80;11.00
1455;DHT22;721;48.168;12.818;2024-01-30T00:32:45;0.80;10.80
1455;DHT22;721;48.168;12.818;2024-01-30T00:35:12;0.80;11.00
1455;DHT22;721;48.168;12.818;2024-01-30T00:37:39;0.80;10.80
1455;DHT22;721;48.168;12.818;2024-01-30T00:40:06;0.80;10.60
1455;DHT22;721;48.168;12.818;2024-01-30T00:42:34;0.80;11.10
1455;DHT22;721;48.168;12.818;2024-01-30T00:45:01;0.80;9.80
1455;DHT22;721;48.168;12.818;2024-01-30T00:47:28;0.70;11.20
1455;DHT22;721;48.168;12.818;2024-01-30T00:49:55;0.70;11.70
1455;DHT22;721;48.168;12.818;2024-01-30T00:52:22;0.70;11.20
1455;DHT22;721;48.168;12.818;2024-01-30T00:54:49;0.70;11.20
1455;DHT22;721;48.168;12.818;2024-01-30T00:57:15;0.70;11.40
1455;DHT22;721;48.168;12.818;2024-01-30T00:59:43;0.50;13.00
1455;DHT22;721;48.168;12.818;2024-01-30T01:02:10;0.40;13.00
1455;DHT22;721;48.168;12.818;2024-01-30T01:04:37;0.40;12.40
1455;DHT22;721;48.168;12.818;2024-01-30T01:07:04;0.30;12.90
1455;DHT22;721;48.168;12.818;2024-01-30T01:09:31;0.20;12.80
1455;DHT22;721;48.168;12.818;2024-01-30T01:11:57;0.10;12.80
1455;DHT22;721;48.168;12.818;2024-01-30T01:14:24;0.10;13.90
1455;DHT22;721;48.168;12.818;2024-01-30T01:16:52;0.10;12.80
1455;DHT22;721;48.168;12.818;2024-01-30T01:19:19;0.00;13.90
1455;DHT22;721;48.168;12.818;2024-01-30T01:21:46;-0.10;14.90
1455;DHT22;721;48.168;12.818;2024-01-30T01:24:12;-0.30;15.90
1455;DHT22;721;48.168;12.818;2024-01-30T01:26:39;-0.30;16.40
1455;DHT22;721;48.168;12.818;2024-01-30T01:29:06;-0.50;17.30
1455;DHT22;721;48.168;12.818;2024-01-30T01:31:35;-0.40;18.40
1455;DHT22;721;48.168;12.818;2024-01-30T01:34:06;-0.30;16.90
1455;DHT22;721;48.168;12.818;2024-01-30T01:36:33;-0.20;15.30
1455;DHT22;721;48.168;12.818;2024-01-30T01:39:00;-0.40;16.40
1455;DHT22;721;48.168;12.818;2024-01-30T01:41:30;-0.50;17.50
1455;DHT22;721;48.168;12.818;2024-01-30T01:43:57;-0.50;17.20
1455;DHT22;721;48.168;12.818;2024-01-30T01:46:26;-0.40;16.00
1455;DHT22;721;48.168;12.818;2024-01-30T01:48:54;-0.30;15.70
1455;DHT22;721;48.168;12.818;2024-01-30T01:51:23;-0.30;14.60
1455;DHT22;721;48.168;12.818;2024-01-30T01:53:51;-0.20;14.00
1455;DHT22;721;48.168;12.818;2024-01-30T01:56:18;-0.10;13.30
1455;DHT22;721;48.168;12.818;2024-01-30T01:58:46;-0.10;12.70
1455;DHT22;721;48.168;12.818;2024-01-30T02:01:14;-0.10;12.00
1455;DHT22;721;48.168;12.818;2024-01-30T02:03:42;0.00;11.80
1455;DHT22;721;48.168;12.818;2024-01-30T02:06:09;0.00;12.30
1455;DHT22;721;48.168;12.818;2024-01-30T02:08:38;-0.10;12.10
1455;DHT22;721;48.168;12.818;2024-01-30T02:11:05;-0.10;12.20
1455;DHT22;721;48.168;12.818;2024-01-30T02:13:32;-0.20;12.60
1455;DHT22;721;48.168;12.818;2024-01-30T02:15:59;-0.20;12.60
1455;DHT22;721;48.168;12.818;2024-01-30T02:18:26;-0.30;13.10
1455;DHT22;721;48.168;12.818;2024-01-30T02:20:55;-0.30;12.60
1455;DHT22;721;48.168;12.818;2024-01-30T02:23:24;-0.30;12.50
1455;DHT22;721;48.168;12.818;2024-01-30T02:25:51;-0.40;13.60
1455;DHT22;721;48.168;12.818;2024-01-30T02:28:18;-0.40;13.00
1455;DHT22;721;48.168;12.818;2024-01-30T02:30:46;-0.50;11.60
1455;DHT22;721;48.168;12.818;2024-01-30T02:33:13;-0.50;12.30
1455;DHT22;721;48.168;12.818;2024-01-30T02:35:39;-0.70;13.70
1455;DHT22;721;48.168;12.818;2024-01-30T02:38:06;-0.90;15.50
1455;DHT22;721;48.168;12.818;2024-01-30T02:40:34;-0.90;15.60
1455;DHT22;721;48.168;12.818;2024-01-30T02:43:02;-0.80;14.40
1455;DHT22;721;48.168;12.818;2024-01-30T02:45:29;-0.70;12.80
1455;DHT22;721;48.168;12.818;2024-01-30T02:47:56;-0.70;12.40
1455;DHT22;721;48.168;12.818;2024-01-30T02:50:23;-0.90;14.10
1455;DHT22;721;48.168;12.818;2024-01-30T02:52:49;-0.90;14.80
1455;DHT22;721;48.168;12.818;2024-01-30T02:55:16;-0.90;14.50
1455;DHT22;721;48.168;12.818;2024-01-30T02:57:45;-1.00;15.40
1455;DHT22;721;48.168;12.818;2024-01-30T03:00:13;-0.90;15.00
1455;DHT22;721;48.168;12.818;2024-01-30T03:02:39;-0.90;13.80
1455;DHT22;721;48.168;12.818;2024-01-30T03:05:07;-0.90;13.00
1455;DHT22;721;48.168;12.818;2024-01-30T03:07:34;-0.90;13.20
1455;DHT22;721;48.168;12.818;2024-01-30T03:10:01;-0.90;14.00
1455;DHT22;721;48.168;12.818;2024-01-30T03:12:28;-0.80;13.80
1455;DHT22;721;48.168;12.818;2024-01-30T03:14:56;-0.90;14.50
1455;DHT22;721;48.168;12.818;2024-01-30T03:17:23;-0.80;14.40
1455;DHT22;721;48.168;12.818;2024-01-30T03:19:50;-0.80;13.00
1455;DHT22;721;48.168;12.818;2024-01-30T03:22:17;-0.70;12.20
1455;DHT22;721;48.168;12.818;2024-01-30T03:24:43;-0.70;12.20
1455;DHT22;721;48.168;12.818;2024-01-30T03:27:10;-0.80;12.20
1455;DHT22;721;48.168;12.818;2024-01-30T03:29:37;-0.80;12.80
1455;DHT22;721;48.168;12.818;2024-01-30T03:32:06;-0.90;12.90
1455;DHT22;721;48.168;12.818;2024-01-30T03:34:33;-1.00;13.50
1455;DHT22;721;48.168;12.818;2024-01-30T03:36:59;-1.10;13.10
1455;DHT22;721;48.168;12.818;2024-01-30T03:39:26;-1.20;14.60
1455;DHT22;721;48.168;12.818;2024-01-30T03:41:53;-1.10;14.10
1455;DHT22;721;48.168;12.818;2024-01-30T03:44:20;-1.00;13.10
1455;DHT22;721;48.168;12.818;2024-01-30T03:46:46;-0.90;12.20
1455;DHT22;721;48.168;12.818;2024-01-30T03:49:14;-0.90;12.10
1455;DHT22;721;48.168;12.818;2024-01-30T03:51:41;-0.80;12.70
1455;DHT22;721;48.168;12.818;2024-01-30T03:54:08;-0.70;11.80
1455;DHT22;721;48.168;12.818;2024-01-30T03:56:35;-0.80;10.20
1455;DHT22;721;48.168;12.818;2024-01-30T03:59:02;-1.00;12.20
1455;DHT22;721;48.168;12.818;2024-01-30T04:01:28;-1.00;11.70
1455;DHT22;721;48.168;12.818;2024-01-30T04:03:55;-1.10;12.00
1455;DHT22;721;48.168;12.818;2024-01-30T04:06:23;-1.20;13.10
1455;DHT22;721;48.168;12.818;2024-01-30T04:08:50;-1.30;13.10
1455;DHT22;721;48.168;12.818;2024-01-30T04:11:18;-1.40;13.60
1455;DHT22;721;48.168;12.818;2024-01-30T04:13:45;-1.30;14.00
1455;DHT22;721;48.168;12.818;2024-01-30T04:16:19;-1.30;12.30
1455;DHT22;721;48.168;12.818;2024-01-30T04:18:47;-1.20;11.90
1455;DHT22;721;48.168;12.818;2024-01-30T04:21:14;-1.10;11.80
1455;DHT22;721;48.168;12.818;2024-01-30T04:23:42;-1.10;11.40
1455;DHT22;721;48.168;12.818;2024-01-30T04:26:09;-1.00;10.70
1455;DHT22;721;48.168;12.818;2024-01-30T04:28:35;-1.10;11.60
1455;DHT22;721;48.168;12.818;2024-01-30T04:31:02;-1.20;11.90
1455;DHT22;721;48.168;12.818;2024-01-30T04:33:29;-1.20;11.90
1455;DHT22;721;48.168;12.818;2024-01-30T04:35:56;-1.30;12.20
1455;DHT22;721;48.168;12.818;2024-01-30T04:38:22;-1.30;12.50
1455;DHT22;721;48.168;12.818;2024-01-30T04:40:50;-1.30;13.10
1455;DHT22;721;48.168;12.818;2024-01-30T04:43:17;-1.20;12.30
1455;DHT22;721;48.168;12.818;2024-01-30T04:45:44;-1.20;12.40
1455;DHT22;721;48.168;12.818;2024-01-30T04:48:11;-1.20;12.80
1455;DHT22;721;48.168;12.818;2024-01-30T04:50:38;-1.20;13.00
1455;DHT22;721;48.168;12.818;2024-01-30T04:53:04;-0.70;13.90
1455;DHT22;721;48.168;12.818;2024-01-30T04:55:31;-1.40;13.30
1455;DHT22;721;48.168;12.818;2024-01-30T04:57:59;-1.40;13.50
1455;DHT22;721;48.168;12.818;2024-01-30T05:00:26;-1.60;13.60
1455;DHT22;721;48.168;12.818;2024-01-30T05:02:54;-1.60;13.40
1455;DHT22;721;48.168;12.818;2024-01-30T05:05:21;-1.70;14.50
1455;DHT22;721;48.168;12.818;2024-01-30T05:07:48;-1.70;14.60
1455;DHT22;721;48.168;12.818;2024-01-30T05:10:15;-1.70;15.60
1455;DHT22;721;48.168;12.818;2024-01-30T05:12:40;-1.60;13.80
1455;DHT22;721;48.168;12.818;2024-01-30T05:15:09;-1.50;12.90
1455;DHT22;721;48.168;12.818;2024-01-30T05:17:36;-1.50;12.70
1455;DHT22;721;48.168;12.818;2024-01-30T05:20:03;-1.50;12.70
1455;DHT22;721;48.168;12.818;2024-01-30T05:22:31;-1.50;13.10
1455;DHT22;721;48.168;12.818;2024-01-30T05:24:57;-1.50;12.40
1455;DHT22;721;48.168;12.818;2024-01-30T05:27:24;-1.50;11.90
1455;DHT22;721;48.168;12.818;2024-01-30T05:29:51;-1.40;11.80
1455;DHT22;721;48.168;12.818;2024-01-30T05:32:19;-1.40;12.20
1455;DHT22;721;48.168;12.818;2024-01-30T05:34:46;-1.40;12.00
1455;DHT22;721;48.168;12.818;2024-01-30T05:37:12;-1.40;12.50
1455;DHT22;721;48.168;12.818;2024-01-30T05:39:42;-1.40;11.80
1455;DHT22;721;48.168;12.818;2024-01-30T05:42:09;-1.50;12.80
1455;DHT22;721;48.168;12.818;2024-01-30T05:44:36;-1.40;13.00
1455;DHT22;721;48.168;12.818;2024-01-30T05:47:03;-1.40;12.60
1455;DHT22;721;48.168;12.818;2024-01-30T05:49:31;-1.50;13.20
1455;DHT22;721;48.168;12.818;2024-01-30T05:51:58;-1.60;14.10
1455;DHT22;721;48.168;12.818;2024-01-30T05:54:24;-1.50;14.10
1455;DHT22;721;48.168;12.818;2024-01-30T05:56:51;-1.50;12.90
1455;DHT22;721;48.168;12.818;2024-01-30T05:59:18;-1.50;12.60
1455;DHT22;721;48.168;12.818;2024-01-30T06:01:48;-1.40;12.80
1455;DHT22;721;48.168;12.818;2024-01-30T06:04:15;-1.40;12.90
1455;DHT22;721;48.168;12.818;2024-01-30T06:06:43;-1.40;12.60
1455;DHT22;721;48.168;12.818;2024-01-30T06:09:09;-1.60;15.40
1455;DHT22;721;48.168;12.818;2024-01-30T06:11:38;-1.60;16.30
1455;DHT22;721;48.168;12.818;2024-01-30T06:14:05;-1.60;15.30
1455;DHT22;721;48.168;12.818;2024-01-30T06:16:31;-1.50;14.20
1455;DHT22;721;48.168;12.818;2024-01-30T06:18:58;-1.50;14.10
1455;DHT22;721;48.168;12.818;2024-01-30T06:21:25;-1.50;13.70
1455;DHT22;721;48.168;12.818;2024-01-30T06:23:53;-1.50;14.60
1455;DHT22;721;48.168;12.818;2024-01-30T06:26:20;-1.40;13.80
1455;DHT22;721;48.168;12.818;2024-01-30T06:28:47;-1.40;12.70
1455;DHT22;721;48.168;12.818;2024-01-30T06:31:13;-1.40;13.00
1455;DHT22;721;48.168;12.818;2024-01-30T06:33:40;-1.40;12.20
1455;DHT22;721;48.168;12.818;2024-01-30T06:36:08;-1.50;11.70
1455;DHT22;721;48.168;12.818;2024-01-30T06:38:35;-1.40;11.70
1455;DHT22;721;48.168;12.818;2024-01-30T06:41:03;-1.40;11.40
1455;DHT22;721;48.168;12.818;2024-01-30T06:43:30;-1.40;11.30
1455;DHT22;721;48.168;12.818;2024-01-30T06:45:57;-1.50;12.30
1455;DHT22;721;48.168;12.818;2024-01-30T06:48:23;-1.50;13.40
1455;DHT22;721;48.168;12.818;2024-01-30T06:50:52;-1.50;14.40
1455;DHT22;721;48.168;12.818;2024-01-30T06:53:19;-1.50;14.00
1455;DHT22;721;48.168;12.818;2024-01-30T06:55:46;-1.40;13.30
1455;DHT22;721;48.168;12.818;2024-01-30T06:58:14;-1.40;13.00
1455;DHT22;721;48.168;12.818;2024-01-30T07:00:41;-1.50;13.90
1455;DHT22;721;48.168;12.818;2024-01-30T07:03:08;-1.60;15.10
1455;DHT22;721;48.168;12.818;2024-01-30T07:05:34;-1.50;14.90
1455;DHT22;721;48.168;12.818;2024-01-30T07:08:01;-1.40;14.80
1455;DHT22;721;48.168;12.818;2024-01-30T07:10:28;-1.40;14.10
1455;DHT22;721;48.168;12.818;2024-01-30T07:12:55;-1.40;13.20
1455;DHT22;721;48.168;12.818;2024-01-30T07:15:23;-1.40;12.90
1455;DHT22;721;48.168;12.818;2024-01-30T07:17:49;-1.40;14.10
1455;DHT22;721;48.168;12.818;2024-01-30T07:20:16;-1.40;14.20
1455;DHT22;721;48.168;12.818;2024-01-30T07:22:45;-1.30;14.30
1455;DHT22;721;48.168;12.818;2024-01-30T07:25:12;-1.30;13.50
1455;DHT22;721;48.168;12.818;2024-01-30T07:27:39;-1.20;13.70
1455;DHT22;721;48.168;12.818;2024-01-30T07:30:07;-1.20;14.80
1455;DHT22;721;48.168;12.818;2024-01-30T07:32:35;-1.20;15.80
1455;DHT22;721;48.168;12.818;2024-01-30T07:35:02;-1.20;16.30
1455;DHT22;721;48.168;12.818;2024-01-30T07:37:28;-1.10;15.90
1455;DHT22;721;48.168;12.818;2024-01-30T07:39:55;-1.10;15.90
1455;DHT22;721;48.168;12.818;2024-01-30T07:42:22;-1.10;16.50
1455;DHT22;721;48.168;12.818;2024-01-30T07:44:48;-1.10;17.40
1455;DHT22;721;48.168;12.818;2024-01-30T07:47:15;-1.10;18.80
1455;DHT22;721;48.168;12.818;2024-01-30T07:49:43;-1.00;19.90
1455;DHT22;721;48.168;12.818;2024-01-30T07:52:10;-0.90;19.30
1455;DHT22;721;48.168;12.818;2024-01-30T07:54:37;-0.80;18.50
1455;DHT22;721;48.168;12.818;2024-01-30T07:57:04;-0.70;18.60
1455;DHT22;721;48.168;12.818;2024-01-30T07:59:31;-0.70;18.80
1455;DHT22;721;48.168;12.818;2024-01-30T08:01:58;-0.60;19.40
1455;DHT22;721;48.168;12.818;2024-01-30T08:04:25;-0.60;19.10
1455;DHT22;721;48.168;12.818;2024-01-30T08:06:53;-0.50;19.50
1455;DHT22;721;48.168;12.818;2024-01-30T08:09:20;-0.40;20.90
1455;DHT22;721;48.168;12.818;2024-01-30T08:11:46;-0.30;21.30
1455;DHT22;721;48.168;12.818;2024-01-30T08:14:13;-0.20;22.00
1455;DHT22;721;48.168;12.818;2024-01-30T08:16:40;-0.20;22.50
1455;DHT22;721;48.168;12.818;2024-01-30T08:19:06;-0.10;23.20
1455;DHT22;721;48.168;12.818;2024-01-30T08:21:33;0.00;24.00
1455;DHT22;721;48.168;12.818;2024-01-30T08:24:03;0.00;24.40
1455;DHT22;721;48.168;12.818;2024-01-30T08:26:31;0.00;26.00
1455;DHT22;721;48.168;12.818;2024-01-30T08:28:58;0.10;26.60
1455;DHT22;721;48.168;12.818;2024-01-30T08:31:25;0.20;26.40
1455;DHT22;721;48.168;12.818;2024-01-30T08:33:52;0.30;26.60
1455;DHT22;721;48.168;12.818;2024-01-30T08:36:19;0.40;26.50
1455;DHT22;721;48.168;12.818;2024-01-30T08:38:46;0.50;26.40
1455;DHT22;721;48.168;12.818;2024-01-30T08:41:14;0.60;26.70
1455;DHT22;721;48.168;12.818;2024-01-30T08:43:41;0.70;26.90
1455;DHT22;721;48.168;12.818;2024-01-30T08:46:08;0.70;26.40
1455;DHT22;721;48.168;12.818;2024-01-30T08:48:35;0.70;27.90
1455;DHT22;721;48.168;12.818;2024-01-30T08:51:02;0.90;27.80
1455;DHT22;721;48.168;12.818;2024-01-30T08:53:33;0.90;28.00
1455;DHT22;721;48.168;12.818;2024-01-30T08:56:01;1.00;27.70
1455;DHT22;721;48.168;12.818;2024-01-30T08:58:29;1.10;25.90
1455;DHT22;721;48.168;12.818;2024-01-30T09:00:56;1.10;26.20
1455;DHT22;721;48.168;12.818;2024-01-30T09:03:22;1.10;26.10
1455;DHT22;721;48.168;12.818;2024-01-30T09:05:49;1.20;26.90
1455;DHT22;721;48.168;12.818;2024-01-30T09:08:16;1.30;26.30
1455;DHT22;721;48.168;12.818;2024-01-30T09:10:43;1.30;27.00
1455;DHT22;721;48.168;12.818;2024-01-30T09:13:10;1.40;26.90
1455;DHT22;721;48.168;12.818;2024-01-30T09:15:38;1.60;27.70
1455;DHT22;721;48.168;12.818;2024-01-30T09:18:06;1.70;26.10
1455;DHT22;721;48.168;12.818;2024-01-30T09:20:32;1.80;24.50
1455;DHT22;721;48.168;12.818;2024-01-30T09:22:59;2.00;23.90
1455;DHT22;721;48.168;12.818;2024-01-30T09:25:26;2.10;23.90
1455;DHT22;721;48.168;12.818;2024-01-30T09:27:53;2.20;22.90
1455;DHT22;721;48.168;12.818;2024-01-30T09:30:19;2.30;22.60
1455;DHT22;721;48.168;12.818;2024-01-30T09:32:47;2.40;21.40
1455;DHT22;721;48.168;12.818;2024-01-30T09:35:14;2.60;20.20
1455;DHT22;721;48.168;12.818;2024-01-30T09:37:41;2.70;20.00
1455;DHT22;721;48.168;12.818;2024-01-30T09:40:08;2.80;19.10
1455;DHT22;721;48.168;12.818;2024-01-30T09:42:36;2.90;18.10
1455;DHT22;721;48.168;12.818;2024-01-30T09:45:03;3.10;17.60
1455;DHT22;721;48.168;12.818;2024-01-30T09:47:32;3.20;17.50
1455;DHT22;721;48.168;12.818;2024-01-30T09:50:01;3.20;15.90
1455;DHT22;721;48.168;12.818;2024-01-30T09:52:31;3.40;16.30
1455;DHT22;721;48.168;12.818;2024-01-30T09:54:59;3.50;16.30
1455;DHT22;721;48.168;12.818;2024-01-30T09:57:26;3.60;14.80
1455;DHT22;721;48.168;12.818;2024-01-30T09:59:53;3.70;13.90
1455;DHT22;721;48.168;12.818;2024-01-30T10:02:20;3.90;12.20
1455;DHT22;721;48.168;12.818;2024-01-30T10:04:48;3.90;11.00
1455;DHT22;721;48.168;12.818;2024-01-30T10:07:16;4.00;11.50
1455;DHT22;721;48.168;12.818;2024-01-30T10:09:43;4.10;10.90
1455;DHT22;721;48.168;12.818;2024-01-30T10:12:10;4.20;8.90
1455;DHT22;721;48.168;12.818;2024-01-30T10:14:38;4.30;7.50
1455;DHT22;721;48.168;12.818;2024-01-30T10:17:06;4.30;7.40
1455;DHT22;721;48.168;12.818;2024-01-30T10:19:33;4.40;7.50
1455;DHT22;721;48.168;12.818;2024-01-30T10:22:00;4.50;5.90
1455;DHT22;721;48.168;12.818;2024-01-30T10:24:28;4.50;4.40
1455;DHT22;721;48.168;12.818;2024-01-30T10:26:56;4.60;3.10
1455;DHT22;721;48.168;12.818;2024-01-30T10:29:22;4.70;3.50
1455;DHT22;721;48.168;12.818;2024-01-30T10:31:58;4.80;3.00
1455;DHT22;721;48.168;12.818;2024-01-30T10:34:25;4.90;1.80
1455;DHT22;721;48.168;12.818;2024-01-30T10:36:59;4.80;1.00
1455;DHT22;721;48.168;12.818;2024-01-30T10:39:29;5.00;1.00
1455;DHT22;721;48.168;12.818;2024-01-30T10:42:04;5.10;1.00
1455;DHT22;721;48.168;12.818;2024-01-30T10:44:37;5.10;1.00
1455;DHT22;721;48.168;12.818;2024-01-30T10:47:09;5.30;1.00
1455;DHT22;721;48.168;12.818;2024-01-30T10:49:39;5.40;1.00
1455;DHT22;721;48.168;12.818;2024-01-30T10:52:06;5.50;1.00
1455;DHT22;721;48.168;12.818;2024-01-30T10:54:36;5.50;1.00
1455;DHT22;721;48.168;12.818;2024-01-30T10:57:04;5.50;1.00
1455;DHT22;721;48.168;12.818;2024-01-30T10:59:32;5.80;1.00
1455;DHT22;721;48.168;12.818;2024-01-30T11:01:59;6.00;1.00
1455;DHT22;721;48.168;12.818;2024-01-30T11:04:26;6.20;1.00
1455;DHT22;721;48.168;12.818;2024-01-30T11:06:54;6.40;1.00
1455;DHT22;721;48.168;12.818;2024-01-30T11:09:21;6.60;1.00
1455;DHT22;721;48.168;12.818;2024-01-30T11:11:56;6.70;1.00
1455;DHT22;721;48.168;12.818;2024-01-30T11:14:25;6.80;1.00
1455;DHT22;721;48.168;12.818;2024-01-30T11:16:52;7.00;1.00
1455;DHT22;721;48.168;12.818;2024-01-30T11:19:23;7.10;1.00
1455;DHT22;721;48.168;12.818;2024-01-30T11:21:51;7.20;1.00
1455;DHT22;721;48.168;12.818;2024-01-30T11:24:19;7.40;1.00
1455;DHT22;721;48.168;12.818;2024-01-30T11:26:48;7.50;1.00
1455;DHT22;721;48.168;12.818;2024-01-30T11:29:17;7.70;1.00
1455;DHT22;721;48.168;12.818;2024-01-30T11:31:51;8.00;1.00
1455;DHT22;721;48.168;12.818;2024-01-30T11:34:18;8.00;1.00
1455;DHT22;721;48.168;12.818;2024-01-30T11:36:51;8.10;1.00
1455;DHT22;721;48.168;12.818;2024-01-30T11:39:20;8.30;1.00
1455;DHT22;721;48.168;12.818;2024-01-30T11:41:49;8.60;1.00
1455;DHT22;721;48.168;12.818;2024-01-30T11:44:18;8.60;1.00
1455;DHT22;721;48.168;12.818;2024-01-30T11:46:46;8.60;1.00
1455;DHT22;721;48.168;12.818;2024-01-30T11:49:13;8.80;1.00
1455;DHT22;721;48.168;12.818;2024-01-30T11:51:40;9.10;1.00
1455;DHT22;721;48.168;12.818;2024-01-30T11:54:08;9.10;1.00
1455;DHT22;721;48.168;12.818;2024-01-30T11:56:35;9.30;1.00
1455;DHT22;721;48.168;12.818;2024-01-30T11:59:03;9.50;1.00
1455;DHT22;721;48.168;12.818;2024-01-30T12:01:31;9.50;1.00
1455;DHT22;721;48.168;12.818;2024-01-30T12:03:58;9.70;1.00
1455;DHT22;721;48.168;12.818;2024-01-30T12:06:25;9.90;1.00
1455;DHT22;721;48.168;12.818;2024-01-30T12:08:57;9.90;1.00
1455;DHT22;721;48.168;12.818;2024-01-30T12:11:24;10.10;1.00
1455;DHT22;721;48.168;12.818;2024-01-30T12:13:51;10.20;1.00
1455;DHT22;721;48.168;12.818;2024-01-30T12:16:19;10.30;1.00
1455;DHT22;721;48.168;12.818;2024-01-30T12:18:47;10.30;1.00
1455;DHT22;721;48.168;12.818;2024-01-30T12:21:16;10.30;1.00
1455;DHT22;721;48.168;12.818;2024-01-30T12:23:43;10.80;1.00
1455;DHT22;721;48.168;12.818;2024-01-30T12:26:10;10.90;1.00
1455;DHT22;721;48.168;12.818;2024-01-30T12:28:46;10.90;1.00
1455;DHT22;721;48.168;12.818;2024-01-30T12:31:13;11.20;1.00
1455;DHT22;721;48.168;12.818;2024-01-30T12:33:40;11.50;1.00
1455;DHT22;721;48.168;12.818;2024-01-30T12:36:08;11.60;1.00
1455;DHT22;721;48.168;12.818;2024-01-30T12:38:35;11.90;1.00
1455;DHT22;721;48.168;12.818;2024-01-30T12:41:02;12.20;1.00
1455;DHT22;721;48.168;12.818;2024-01-30T12:43:30;12.20;1.00
1455;DHT22;721;48.168;12.818;2024-01-30T12:45:57;12.40;1.00
1455;DHT22;721;48.168;12.818;2024-01-30T12:48:24;12.50;1.00
1455;DHT22;721;48.168;12.818;2024-01-30T12:50:51;12.70;1.00
1455;DHT22;721;48.168;12.818;2024-01-30T12:53:20;12.80;1.00
1455;DHT22;721;48.168;12.818;2024-01-30T12:55:47;13.00;1.00
1455;DHT22;721;48.168;12.818;2024-01-30T12:58:15;12.90;1.00
1455;DHT22;721;48.168;12.818;2024-01-30T13:00:42;12.80;1.00
1455;DHT22;721;48.168;12.818;2024-01-30T13:03:10;12.90;1.00
1455;DHT22;721;48.168;12.818;2024-01-30T13:05:37;12.90;1.00
1455;DHT22;721;48.168;12.818;2024-01-30T13:08:04;13.20;1.00
1455;DHT22;721;48.168;12.818;2024-01-30T13:10:33;13.10;1.00
1455;DHT22;721;48.168;12.818;2024-01-30T13:12:59;13.20;1.00
1455;DHT22;721;48.168;12.818;2024-01-30T13:15:26;13.30;1.00
1455;DHT22;721;48.168;12.818;2024-01-30T13:17:53;13.40;1.00
1455;DHT22;721;48.168;12.818;2024-01-30T13:20:20;13.60;1.00
1455;DHT22;721;48.168;12.818;2024-01-30T13:22:47;13.50;1.00
1455;DHT22;721;48.168;12.818;2024-01-30T13:25:15;13.80;1.00
1455;DHT22;721;48.168;12.818;2024-01-30T13:27:43;13.90;1.00
1455;DHT22;721;48.168;12.818;2024-01-30T13:30:10;13.80;1.00
1455;DHT22;721;48.168;12.818;2024-01-30T13:32:37;13.90;1.00
1455;DHT22;721;48.168;12.818;2024-01-30T13:35:06;14.10;1.00
1455;DHT22;721;48.168;12.818;2024-01-30T13:37:33;14.10;1.00
1455;DHT22;721;48.168;12.818;2024-01-30T13:40:01;14.40;1.00
1455;DHT22;721;48.168;12.818;2024-01-30T13:42:27;14.30;1.00
1455;DHT22;721;48.168;12.818;2024-01-30T13:44:56;14.30;1.00
1455;DHT22;721;48.168;12.818;2024-01-30T13:47:22;14.10;1.00
1455;DHT22;721;48.168;12.818;2024-01-30T13:49:49;14.20;1.00
1455;DHT22;721;48.168;12.818;2024-01-30T13:52:18;14.30;1.00
1455;DHT22;721;48.168;12.818;2024-01-30T13:54:44;14.30;1.00
1455;DHT22;721;48.168;12.818;2024-01-30T13:57:11;14.20;1.00
1455;DHT22;721;48.168;12.818;2024-01-30T13:59:38;14.20;1.00
1455;DHT22;721;48.168;12.818;2024-01-30T14:02:06;14.00;1.00
1455;DHT22;721;48.168;12.818;2024-01-30T14:04:35;14.00;1.00
1455;DHT22;721;48.168;12.818;2024-01-30T14:07:03;13.80;1.00
1455;DHT22;721;48.168;12.818;2024-01-30T14:09:29;13.70;1.00
1455;DHT22;721;48.168;12.818;2024-01-30T14:11:57;13.70;1.00
1455;DHT22;721;48.168;12.818;2024-01-30T14:14:24;13.80;1.00
1455;DHT22;721;48.168;12.818;2024-01-30T14:16:51;13.70;1.00
1455;DHT22;721;48.168;12.818;2024-01-30T14:19:19;13.60;1.00
1455;DHT22;721;48.168;12.818;2024-01-30T14:21:46;13.50;1.00
1455;DHT22;721;48.168;12.818;2024-01-30T14:24:13;13.40;1.00
1455;DHT22;721;48.168;12.818;2024-01-30T14:26:40;13.40;1.00
1455;DHT22;721;48.168;12.818;2024-01-30T14:29:06;13.30;1.00
1455;DHT22;721;48.168;12.818;2024-01-30T14:31:33;12.90;1.00
1455;DHT22;721;48.168;12.818;2024-01-30T14:34:00;13.00;1.00
1455;DHT22;721;48.168;12.818;2024-01-30T14:36:28;12.90;1.00
1455;DHT22;721;48.168;12.818;2024-01-30T14:38:55;12.70;1.00
1455;DHT22;721;48.168;12.818;2024-01-30T14:41:22;12.50;1.00
1455;DHT22;721;48.168;12.818;2024-01-30T14:43:48;12.60;1.00
1455;DHT22;721;48.168;12.818;2024-01-30T14:46:16;12.50;1.00
1455;DHT22;721;48.168;12.818;2024-01-30T14:48:42;12.40;1.00
1455;DHT22;721;48.168;12.818;2024-01-30T14:51:09;12.30;1.00
1455;DHT22;721;48.168;12.818;2024-01-30T14:53:37;12.30;1.00
1455;DHT22;721;48.168;12.818;2024-01-30T14:56:05;12.20;1.00
1455;DHT22;721;48.168;12.818;2024-01-30T14:58:32;12.10;1.00
1455;DHT22;721;48.168;12.818;2024-01-30T15:00:58;12.00;1.00
1455;DHT22;721;48.168;12.818;2024-01-30T15:03:27;11.70;1.00
1455;DHT22;721;48.168;12.818;2024-01-30T15:05:54;11.50;1.00
1455;DHT22;721;48.168;12.818;2024-01-30T15:08:21;11.40;1.00
1455;DHT22;721;48.168;12.818;2024-01-30T15:10:49;11.20;1.00
1455;DHT22;721;48.168;12.818;2024-01-30T15:13:16;11.20;1.00
1455;DHT22;721;48.168;12.818;2024-01-30T15:15:43;11.10;1.00
1455;DHT22;721;48.168;12.818;2024-01-30T15:18:10;11.00;1.00
1455;DHT22;721;48.168;12.818;2024-01-30T15:20:37;11.00;1.00
1455;DHT22;721;48.168;12.818;2024-01-30T15:23:04;10.80;1.00
1455;DHT22;721;48.168;12.818;2024-01-30T15:25:31;10.70;1.00
1455;DHT22;721;48.168;12.818;2024-01-30T15:27:59;10.60;1.00
1455;DHT22;721;48.168;12.818;2024-01-30T15:30:25;10.50;1.00
1455;DHT22;721;48.168;12.818;2024-01-30T15:32:52;10.50;1.00
1455;DHT22;721;48.168;12.818;2024-01-30T15:35:19;10.40;1.00
1455;DHT22;721;48.168;12.818;2024-01-30T15:37:47;10.20;1.00
1455;DHT22;721;48.168;12.818;2024-01-30T15:40:13;10.30;1.00
1455;DHT22;721;48.168;12.818;2024-01-30T15:42:41;10.30;1.00
1455;DHT22;721;48.168;12.818;2024-01-30T15:45:10;10.10;1.00
1455;DHT22;721;48.168;12.818;2024-01-30T15:47:37;10.00;1.00
1455;DHT22;721;48.168;12.818;2024-01-30T15:50:04;9.90;1.00
1455;DHT22;721;48.168;12.818;2024-01-30T15:52:31;9.90;1.00
1455;DHT22;721;48.168;12.818;2024-01-30T15:54:58;9.90;1.00
1455;DHT22;721;48.168;12.818;2024-01-30T15:57:25;9.80;1.00
1455;DHT22;721;48.168;12.818;2024-01-30T15:59:51;9.70;1.00
1455;DHT22;721;48.168;12.818;2024-01-30T16:02:20;9.70;1.00
1455;DHT22;721;48.168;12.818;2024-01-30T16:04:47;9.60;1.00
1455;DHT22;721;48.168;12.818;2024-01-30T16:07:14;9.60;1.00
1455;DHT22;721;48.168;12.818;2024-01-30T16:09:41;9.50;1.00
1455;DHT22;721;48.168;12.818;2024-01-30T16:12:09;9.30;1.00
1455;DHT22;721;48.168;12.818;2024-01-30T16:14:35;9.30;1.00